Time;durP1;ratioP1;P1;durP2;ratioP2;P2;SDS_P1;SDS_P2;PMS_P1;PMS_P2;Temp;Humidity;BMP_temperature;BMP_pressure;BME280_temperature;BME280_humidity;BME280_pressure;Samples;Min_cycle;Max_cycle;Signal;HPM_P1;HPM_P2
2022/04/24 00:01:55;;;;;;;8.23;6.65;;;9.90;99.90;;;;;;5030144;28;20566;-81
2022/04/24 00:04:21;;;;;;;12.13;6.68;;;9.90;99.90;;;;;;5013635;28;20037;-82
2022/04/24 00:06:46;;;;;;;11.00;7.00;;;9.80;99.90;;;;;;5029160;28;20041;-81
2022/04/24 00:09:14;;;;;;;8.48;6.97;;;9.80;99.90;;;;;;5029545;28;20030;-82
2022/04/24 00:11:39;;;;;;;10.75;6.80;;;9.80;99.90;;;;;;5028367;28;20049;-82
2022/04/24 00:14:09;;;;;;;8.38;7.20;;;9.70;99.90;;;;;;5030251;28;20043;-81
2022/04/24 00:16:35;;;;;;;9.55;6.93;;;9.70;99.90;;;;;;5028920;28;20042;-83
2022/04/24 00:19:01;;;;;;;9.73;6.93;;;9.60;99.90;;;;;;5025699;28;20044;-83
2022/04/24 00:21:27;;;;;;;9.05;6.85;;;9.60;99.90;;;;;;5028117;28;20038;-83
2022/04/24 00:23:52;;;;;;;8.05;6.88;;;9.60;99.90;;;;;;5029448;28;20033;-83
2022/04/24 00:26:18;;;;;;;10.50;7.03;;;9.60;99.90;;;;;;5028667;28;20049;-82
2022/04/24 00:28:43;;;;;;;8.65;7.32;;;9.50;99.90;;;;;;5029369;28;20179;-83
2022/04/24 00:31:09;;;;;;;13.55;6.63;;;9.50;99.90;;;;;;5027640;28;20095;-83
2022/04/24 00:33:34;;;;;;;11.18;7.40;;;9.50;99.90;;;;;;5029456;28;20045;-83
2022/04/24 00:36:00;;;;;;;9.27;7.65;;;9.40;99.90;;;;;;5030328;28;20030;-82
2022/04/24 00:38:25;;;;;;;11.95;7.53;;;9.40;99.90;;;;;;5029520;28;20038;-82
2022/04/24 00:40:53;;;;;;;9.32;6.90;;;9.40;99.90;;;;;;5028363;28;20041;-83
2022/04/24 00:43:19;;;;;;;8.20;7.03;;;9.30;99.90;;;;;;5014653;28;20112;-83
2022/04/24 00:45:44;;;;;;;7.80;6.85;;;9.20;99.90;;;;;;5027140;28;20043;-81
2022/04/24 00:48:11;;;;;;;9.23;7.18;;;9.20;99.90;;;;;;5028944;28;20034;-82
2022/04/24 00:50:39;;;;;;;9.70;7.47;;;9.20;99.90;;;;;;5028084;28;20057;-83
2022/04/24 00:53:06;;;;;;;11.80;7.15;;;9.20;99.90;;;;;;5029323;28;20526;-84
2022/04/24 00:55:32;;;;;;;8.45;6.90;;;9.10;99.90;;;;;;5028704;28;20037;-83
2022/04/24 00:57:58;;;;;;;8.40;7.00;;;9.10;99.90;;;;;;5029659;28;20036;-84
2022/04/24 01:00:24;;;;;;;10.98;8.05;;;9.10;99.90;;;;;;5011323;28;20403;-83
2022/04/24 01:02:49;;;;;;;15.27;7.72;;;9.10;99.90;;;;;;5028434;28;20038;-84
2022/04/24 01:05:17;;;;;;;8.82;7.28;;;9.10;99.90;;;;;;5027268;28;20519;-83
2022/04/24 01:07:43;;;;;;;8.88;7.15;;;9.00;99.90;;;;;;5028544;28;20552;-83
2022/04/24 01:10:09;;;;;;;9.30;7.20;;;9.00;99.90;;;;;;5029128;28;20042;-85
2022/04/24 01:12:34;;;;;;;9.63;7.38;;;9.00;99.90;;;;;;5028410;28;20049;-83
2022/04/24 01:15:00;;;;;;;9.70;7.40;;;8.90;99.90;;;;;;5028037;28;20079;-84
2022/04/24 01:17:26;;;;;;;8.57;7.38;;;9.00;99.90;;;;;;5028266;28;20068;-85
2022/04/24 01:19:53;;;;;;;8.77;7.00;;;8.90;99.90;;;;;;5029146;28;20065;-83
2022/04/24 01:22:19;;;;;;;8.85;7.68;;;8.90;99.90;;;;;;5011490;28;20069;-84
2022/04/24 01:24:44;;;;;;;10.40;7.72;;;8.90;99.90;;;;;;5027326;28;20075;-84
2022/04/24 01:27:10;;;;;;;8.68;7.40;;;8.80;99.90;;;;;;5028555;28;20491;-84
2022/04/24 01:29:35;;;;;;;9.65;7.57;;;8.80;99.90;;;;;;5028102;28;20034;-83
2022/04/24 01:32:01;;;;;;;10.48;7.78;;;8.80;99.90;;;;;;5028397;28;20049;-84
2022/04/24 01:34:26;;;;;;;10.20;7.93;;;8.70;99.90;;;;;;5026720;28;20092;-85
2022/04/24 01:36:52;;;;;;;9.40;7.50;;;8.70;99.90;;;;;;5028149;28;20040;-87
2022/04/24 01:39:18;;;;;;;11.40;7.80;;;8.70;99.90;;;;;;5042657;28;20040;-84
2022/04/24 01:41:44;;;;;;;11.23;7.45;;;8.70;99.90;;;;;;5029312;28;20034;-84
2022/04/24 01:44:09;;;;;;;8.75;7.53;;;8.70;99.90;;;;;;5027880;28;20037;-84
2022/04/24 01:46:35;;;;;;;9.73;7.78;;;8.70;99.90;;;;;;5028231;28;20159;-84
2022/04/24 01:49:01;;;;;;;9.15;7.88;;;8.70;99.90;;;;;;5028286;28;20047;-84
2022/04/24 01:51:27;;;;;;;9.32;7.97;;;8.70;99.90;;;;;;5027987;28;20424;-85
2022/04/24 01:53:52;;;;;;;11.50;7.75;;;8.60;99.90;;;;;;5044392;28;20407;-84
2022/04/24 01:56:18;;;;;;;9.63;7.15;;;8.60;99.90;;;;;;5011879;28;20030;-85
2022/04/24 01:58:43;;;;;;;10.73;7.60;;;8.50;99.90;;;;;;5029944;28;20520;-86
2022/04/24 02:01:09;;;;;;;8.88;7.45;;;8.60;99.90;;;;;;5028555;28;20569;-85
2022/04/24 02:03:35;;;;;;;8.88;7.32;;;8.50;99.90;;;;;;5010196;28;20095;-84
2022/04/24 02:06:02;;;;;;;9.55;7.50;;;8.50;99.90;;;;;;5028002;28;20045;-84
2022/04/24 02:08:28;;;;;;;11.52;7.90;;;8.50;99.90;;;;;;5026851;28;20414;-84
2022/04/24 02:10:53;;;;;;;11.30;8.18;;;8.50;99.90;;;;;;5026284;28;20029;-85
2022/04/24 02:13:19;;;;;;;11.20;7.80;;;8.40;99.90;;;;;;5027821;28;20064;-86
2022/04/24 02:15:49;;;;;;;9.15;7.43;;;8.50;99.90;;;;;;5026933;28;20045;-85
2022/04/24 02:18:15;;;;;;;10.52;7.30;;;8.40;99.90;;;;;;5027544;28;20048;-86
2022/04/24 02:20:41;;;;;;;9.70;7.30;;;8.40;99.90;;;;;;5026663;28;20040;-85
2022/04/24 02:23:08;;;;;;;10.20;7.35;;;8.40;99.90;;;;;;5027518;28;20402;-85
2022/04/24 02:25:34;;;;;;;9.68;7.50;;;8.40;99.90;;;;;;5024889;28;20407;-85
2022/04/24 02:27:59;;;;;;;9.55;7.72;;;8.40;99.90;;;;;;5028876;28;20041;-86
2022/04/24 02:30:27;;;;;;;8.63;7.03;;;8.30;99.90;;;;;;5028043;28;20087;-85
2022/04/24 02:32:57;;;;;;;9.23;7.43;;;8.30;99.90;;;;;;5028966;28;20037;-86
2022/04/24 02:35:22;;;;;;;9.23;7.38;;;8.30;99.90;;;;;;5028483;28;20069;-86
2022/04/24 02:37:48;;;;;;;10.65;7.72;;;8.30;99.90;;;;;;5011706;28;20083;-86
2022/04/24 02:40:15;;;;;;;9.50;7.82;;;8.20;99.90;;;;;;5028666;28;20041;-85
2022/04/24 02:42:41;;;;;;;11.30;8.07;;;8.20;99.90;;;;;;5026208;28;20443;-86
2022/04/24 02:45:07;;;;;;;9.07;7.72;;;8.10;99.90;;;;;;5015451;28;20033;-85
2022/04/24 02:47:33;;;;;;;9.43;7.72;;;8.00;99.90;;;;;;5026473;28;20518;-86
2022/04/24 02:49:59;;;;;;;9.85;7.72;;;8.00;99.90;;;;;;5025735;28;20037;-86
2022/04/24 02:52:25;;;;;;;10.85;8.40;;;8.00;99.90;;;;;;5026422;28;20037;-85
2022/04/24 02:54:50;;;;;;;10.88;8.35;;;7.90;99.90;;;;;;5026977;28;20033;-85
2022/04/24 02:57:16;;;;;;;10.82;8.27;;;7.90;99.90;;;;;;5025805;28;20041;-85
2022/04/24 02:59:42;;;;;;;10.43;8.25;;;7.90;99.90;;;;;;5011422;28;20044;-86
2022/04/24 03:02:09;;;;;;;10.25;7.93;;;7.90;99.90;;;;;;5026700;28;20080;-86
2022/04/24 03:04:35;;;;;;;11.70;8.10;;;7.80;99.90;;;;;;5009760;28;20053;-85
2022/04/24 03:07:01;;;;;;;12.32;8.80;;;7.70;99.90;;;;;;5025394;28;20041;-85
2022/04/24 03:09:26;;;;;;;12.15;9.32;;;7.70;99.90;;;;;;5024723;28;20037;-85
2022/04/24 03:11:52;;;;;;;11.48;8.00;;;7.60;99.90;;;;;;5025463;28;20483;-86
2022/04/24 03:14:17;;;;;;;10.80;8.07;;;7.60;99.90;;;;;;5025908;28;20407;-85
2022/04/24 03:16:43;;;;;;;10.52;8.55;;;7.50;99.90;;;;;;5009875;28;20029;-85
2022/04/24 03:19:08;;;;;;;12.02;8.45;;;7.60;99.90;;;;;;5027189;28;20065;-86
2022/04/24 03:21:34;;;;;;;13.35;8.43;;;7.50;99.90;;;;;;5026097;28;20045;-86
2022/04/24 03:24:00;;;;;;;9.45;8.20;;;7.50;99.90;;;;;;5026451;28;20042;-85
2022/04/24 03:26:26;;;;;;;10.45;8.60;;;7.40;99.90;;;;;;5025262;28;20049;-86
2022/04/24 03:28:51;;;;;;;11.32;8.57;;;7.40;99.90;;;;;;5026555;28;20044;-86
2022/04/24 03:31:17;;;;;;;10.55;8.60;;;7.40;99.90;;;;;;5025477;28;20045;-86
2022/04/24 03:33:43;;;;;;;12.00;8.32;;;7.30;99.90;;;;;;5025570;28;20037;-85
2022/04/24 03:36:08;;;;;;;11.77;8.55;;;7.30;99.90;;;;;;5026240;28;20088;-85
2022/04/24 03:38:34;;;;;;;11.00;8.50;;;7.40;99.90;;;;;;5010239;28;20164;-87
2022/04/24 03:41:00;;;;;;;11.38;8.50;;;7.40;99.90;;;;;;5026828;28;20495;-87
2022/04/24 03:43:25;;;;;;;13.20;8.20;;;7.30;99.90;;;;;;5011127;28;20073;-88
2022/04/24 03:45:51;;;;;;;11.50;8.20;;;7.30;99.90;;;;;;5027220;28;20034;-86
2022/04/24 03:48:17;;;;;;;10.63;8.50;;;7.30;99.90;;;;;;5027520;28;20038;-86
2022/04/24 03:50:42;;;;;;;10.93;8.60;;;7.20;99.90;;;;;;5011820;28;20095;-85
2022/04/24 03:53:09;;;;;;;11.68;7.65;;;7.20;99.90;;;;;;5028107;28;20079;-86
2022/04/24 03:55:34;;;;;;;13.52;7.85;;;7.20;99.90;;;;;;5027613;28;20052;-87
2022/04/24 03:58:00;;;;;;;9.80;8.10;;;7.10;99.90;;;;;;5027290;28;20030;-85
2022/04/24 04:00:26;;;;;;;10.93;7.93;;;7.10;99.90;;;;;;5025823;28;20121;-86
2022/04/24 04:02:52;;;;;;;10.98;7.88;;;7.10;99.90;;;;;;5027452;28;20480;-86
2022/04/24 04:05:17;;;;;;;11.13;8.00;;;7.10;99.90;;;;;;5025438;28;20056;-86
2022/04/24 04:07:43;;;;;;;12.73;8.70;;;7.00;99.90;;;;;;5011422;28;20037;-88
2022/04/24 04:10:09;;;;;;;10.02;8.20;;;7.00;99.90;;;;;;5011439;28;20033;-88
2022/04/24 04:12:40;;;;;;;9.85;7.97;;;7.00;99.90;;;;;;5027361;28;20049;-87
2022/04/24 04:15:06;;;;;;;12.30;8.23;;;7.70;99.90;;;;;;5010345;28;20045;-86
2022/04/24 04:17:34;;;;;;;10.00;8.10;;;7.00;99.90;;;;;;5010781;28;20041;-87
2022/04/24 04:20:00;;;;;;;11.73;7.72;;;7.10;99.90;;;;;;5012029;28;20053;-87
2022/04/24 04:22:26;;;;;;;10.65;8.07;;;7.20;99.90;;;;;;5030449;28;20487;-85
2022/04/24 04:24:52;;;;;;;11.60;8.02;;;7.00;99.90;;;;;;5013017;28;20561;-87
2022/04/24 04:27:19;;;;;;;10.70;8.10;;;7.00;99.90;;;;;;5014818;28;20044;-87
2022/04/24 04:29:44;;;;;;;10.13;7.85;;;7.00;99.90;;;;;;5043907;28;20077;-86
2022/04/24 04:32:10;;;;;;;11.27;7.88;;;6.90;99.90;;;;;;5015130;28;20115;-86
2022/04/24 04:34:36;;;;;;;13.05;8.05;;;6.90;99.90;;;;;;5030196;28;20033;-87
2022/04/24 04:37:01;;;;;;;11.07;7.47;;;7.20;99.90;;;;;;5014308;28;20387;-87
2022/04/24 04:39:27;;;;;;;10.38;7.60;;;6.90;99.90;;;;;;5031227;28;20427;-87
2022/04/24 04:41:53;;;;;;;11.18;8.13;;;7.20;99.90;;;;;;5031901;28;20029;-86
2022/04/24 04:44:18;;;;;;;9.93;7.65;;;6.90;99.90;;;;;;5031377;28;20049;-85
2022/04/24 04:46:44;;;;;;;12.40;8.18;;;7.40;99.90;;;;;;5013482;28;20041;-87
2022/04/24 04:49:10;;;;;;;10.77;7.60;;;6.90;99.90;;;;;;5014128;28;20077;-86
2022/04/24 04:51:35;;;;;;;14.07;7.55;;;7.40;99.90;;;;;;5015159;28;20487;-87
2022/04/24 04:54:04;;;;;;;11.60;7.93;;;7.00;99.90;;;;;;5031911;28;20034;-89
2022/04/24 04:56:30;;;;;;;10.38;6.93;;;7.00;99.90;;;;;;5029661;28;20120;-86
2022/04/24 04:58:55;;;;;;;11.68;7.85;;;7.50;99.90;;;;;;5030546;28;20121;-86
2022/04/24 05:01:21;;;;;;;9.57;7.40;;;7.50;99.90;;;;;;5028686;28;20153;-86
2022/04/24 05:03:46;;;;;;;9.00;7.30;;;7.20;99.90;;;;;;5029198;28;20495;-86
2022/04/24 05:06:12;;;;;;;11.70;7.75;;;7.30;99.90;;;;;;5013799;28;20041;-85
2022/04/24 05:08:37;;;;;;;11.70;8.50;;;7.30;99.90;;;;;;5028924;28;20044;-85
2022/04/24 05:11:03;;;;;;;11.18;7.40;;;7.30;99.90;;;;;;5013131;28;20451;-86
2022/04/24 05:13:28;;;;;;;11.43;8.10;;;7.40;99.90;;;;;;5029639;28;20474;-85
2022/04/24 05:15:54;;;;;;;14.10;7.95;;;7.40;99.90;;;;;;5028223;28;20041;-86
2022/04/24 05:18:20;;;;;;;10.98;8.00;;;7.40;99.90;;;;;;5028813;28;20048;-85
2022/04/24 05:20:46;;;;;;;11.13;7.38;;;7.50;99.90;;;;;;5029172;28;20041;-84
2022/04/24 05:23:11;;;;;;;13.05;8.23;;;7.50;99.90;;;;;;5042078;28;20125;-85
2022/04/24 05:25:37;;;;;;;12.13;7.93;;;7.50;99.90;;;;;;5027188;28;20069;-85
2022/04/24 05:28:04;;;;;;;11.70;8.02;;;7.60;99.90;;;;;;5029487;28;20360;-86
2022/04/24 05:30:30;;;;;;;10.45;7.88;;;7.60;99.90;;;;;;5030951;28;20033;-86
2022/04/24 05:32:56;;;;;;;10.20;8.35;;;7.70;99.90;;;;;;5017452;28;20037;-87
2022/04/24 05:35:21;;;;;;;11.50;8.05;;;7.70;99.90;;;;;;5012111;28;20561;-85
2022/04/24 05:37:48;;;;;;;10.88;8.48;;;7.80;99.90;;;;;;5012484;28;20037;-86
2022/04/24 05:40:14;;;;;;;12.75;9.18;;;7.80;99.90;;;;;;5012267;28;20037;-85
2022/04/24 05:42:51;;;;;;;12.30;8.52;;;7.80;99.90;;;;;;5012163;28;20050;-86
2022/04/24 05:45:18;;;;;;;11.43;8.48;;;7.90;99.90;;;;;;5012176;28;20707;-86
2022/04/24 05:47:47;;;;;;;10.70;8.30;;;8.00;99.90;;;;;;5012212;28;20046;-86
2022/04/24 05:50:13;;;;;;;17.63;8.95;;;8.00;99.90;;;;;;5024033;28;20037;-85
2022/04/24 05:52:40;;;;;;;13.38;9.40;;;8.10;99.90;;;;;;5030261;28;20056;-85
2022/04/24 05:55:05;;;;;;;11.43;8.60;;;8.10;99.90;;;;;;5031543;28;20112;-86
2022/04/24 05:57:31;;;;;;;12.30;8.63;;;8.20;99.90;;;;;;5015216;28;20124;-83
2022/04/24 05:59:58;;;;;;;11.88;8.80;;;8.30;99.90;;;;;;5030976;28;20513;-84
2022/04/24 06:02:24;;;;;;;13.07;8.85;;;8.40;99.90;;;;;;5022317;28;20069;-83
2022/04/24 06:04:49;;;;;;;13.70;9.45;;;8.60;99.90;;;;;;5031403;28;20037;-82
2022/04/24 06:07:15;;;;;;;12.90;8.88;;;8.70;99.90;;;;;;5015113;28;20035;-84
2022/04/24 06:09:41;;;;;;;14.02;8.68;;;8.90;99.90;;;;;;5031386;28;20115;-83
2022/04/24 06:12:08;;;;;;;11.77;9.15;;;8.90;99.90;;;;;;5030973;28;20037;-83
2022/04/24 06:14:33;;;;;;;12.82;8.25;;;9.00;99.90;;;;;;5021023;28;20108;-84
2022/04/24 06:17:00;;;;;;;12.07;8.77;;;8.90;99.90;;;;;;4995767;28;20443;-81
2022/04/24 06:19:26;;;;;;;12.10;8.57;;;9.00;99.90;;;;;;5011554;28;20041;-82
2022/04/24 06:21:52;;;;;;;13.98;8.25;;;9.10;99.90;;;;;;5013623;28;20058;-82
2022/04/24 06:24:18;;;;;;;10.85;7.50;;;9.20;99.90;;;;;;5012151;28;20191;-83
2022/04/24 06:26:44;;;;;;;14.43;8.27;;;9.30;99.90;;;;;;5022404;28;20041;-83
2022/04/24 06:29:11;;;;;;;10.68;7.25;;;9.50;99.90;;;;;;5014552;28;20092;-83
2022/04/24 06:31:36;;;;;;;9.85;6.80;;;9.60;99.90;;;;;;5031562;28;20048;-82
2022/04/24 06:34:02;;;;;;;10.05;6.90;;;9.70;99.90;;;;;;5031648;28;20037;-82
2022/04/24 06:36:28;;;;;;;8.93;6.50;;;9.80;99.90;;;;;;5031835;28;20048;-82
2022/04/24 06:38:53;;;;;;;9.10;6.07;;;9.90;99.90;;;;;;5031359;28;20399;-80
2022/04/24 06:41:19;;;;;;;9.50;6.45;;;9.90;99.90;;;;;;5031197;28;20033;-81
2022/04/24 06:43:44;;;;;;;9.75;6.30;;;10.00;99.90;;;;;;5014529;28;20129;-82
2022/04/24 06:46:10;;;;;;;10.40;6.30;;;10.10;99.90;;;;;;5031657;28;20087;-78
2022/04/24 06:48:36;;;;;;;8.73;5.82;;;10.20;99.90;;;;;;5030831;28;20064;-80
2022/04/24 06:51:01;;;;;;;10.90;5.40;;;10.20;99.90;;;;;;5030891;28;20072;-81
2022/04/24 06:53:28;;;;;;;8.40;5.65;;;10.30;99.90;;;;;;5030631;28;20033;-81
2022/04/24 06:55:53;;;;;;;7.43;5.00;;;10.30;99.90;;;;;;5030797;28;20044;-78
2022/04/24 06:58:19;;;;;;;6.95;4.88;;;10.30;99.90;;;;;;5030580;28;20033;-80
2022/04/24 07:00:47;;;;;;;7.93;4.93;;;10.40;99.90;;;;;;5030379;28;20399;-82
2022/04/24 07:03:14;;;;;;;9.05;5.13;;;10.40;99.90;;;;;;5031181;28;20037;-82
2022/04/24 07:05:40;;;;;;;6.88;4.40;;;10.50;99.90;;;;;;5031418;28;20407;-81
2022/04/24 07:08:06;;;;;;;7.95;4.40;;;10.60;99.90;;;;;;5033417;28;20041;-80
2022/04/24 07:10:32;;;;;;;6.18;4.22;;;10.70;99.90;;;;;;5014184;28;20418;-82
2022/04/24 07:13:00;;;;;;;8.75;4.60;;;10.80;99.90;;;;;;5030681;28;20410;-82
2022/04/24 07:15:29;;;;;;;7.43;3.88;;;10.90;99.90;;;;;;5014354;28;20033;-80
2022/04/24 07:17:56;;;;;;;7.22;4.10;;;11.10;99.90;;;;;;5030628;28;20033;-82
2022/04/24 07:20:22;;;;;;;7.53;3.65;;;11.20;99.90;;;;;;5030478;28;20037;-80
2022/04/24 07:22:53;;;;;;;5.75;3.88;;;11.30;99.90;;;;;;5030392;28;20124;-79
2022/04/24 07:25:27;;;;;;;5.38;3.15;;;11.40;99.90;;;;;;5029692;28;20037;-81
2022/04/24 07:27:53;;;;;;;7.47;3.60;;;11.50;99.90;;;;;;5030708;28;20091;-81
2022/04/24 07:30:20;;;;;;;6.53;2.92;;;11.60;99.90;;;;;;5032240;28;20037;-77
2022/04/24 07:32:51;;;;;;;3.67;2.40;;;11.80;99.90;;;;;;5033473;28;20518;-79
2022/04/24 07:35:18;;;;;;;6.28;2.67;;;11.80;99.90;;;;;;5032245;28;20045;-78
2022/04/24 07:37:44;;;;;;;4.25;2.50;;;12.00;99.90;;;;;;5030297;28;20562;-76
2022/04/24 07:40:13;;;;;;;3.58;2.40;;;12.10;99.90;;;;;;5030507;28;20083;-76
2022/04/24 07:42:53;;;;;;;3.65;2.30;;;12.10;99.90;;;;;;5013506;28;20038;-75
2022/04/24 07:45:28;;;;;;;4.57;2.53;;;12.30;99.90;;;;;;5030724;28;20033;-79
2022/04/24 07:47:55;;;;;;;4.60;2.20;;;12.40;99.90;;;;;;5013143;28;20053;-78
2022/04/24 07:50:23;;;;;;;5.05;2.40;;;12.50;99.90;;;;;;5030170;28;20094;-77
2022/04/24 07:52:49;;;;;;;3.38;2.17;;;12.50;99.90;;;;;;5031171;28;20037;-79
2022/04/24 07:55:17;;;;;;;6.40;2.58;;;12.70;99.90;;;;;;5032199;28;20112;-77
2022/04/24 07:57:44;;;;;;;4.80;2.30;;;12.70;99.90;;;;;;5034299;28;20042;-77
2022/04/24 08:00:11;;;;;;;5.60;2.70;;;12.90;99.90;;;;;;5034275;28;20152;-76
2022/04/24 08:03:02;;;;;;;3.88;2.65;;;12.80;99.90;;;;;;5034384;28;20050;-80
2022/04/24 08:05:39;;;;;;;6.10;2.83;;;12.80;99.90;;;;;;5035400;28;20045;-78
2022/04/24 08:08:08;;;;;;;6.05;2.72;;;12.90;99.90;;;;;;5018544;28;20052;-79
2022/04/24 08:10:37;;;;;;;4.30;2.70;;;12.90;99.90;;;;;;5034077;28;20049;-78
2022/04/24 08:13:05;;;;;;;2.90;2.30;;;13.00;99.90;;;;;;5034869;28;20068;-76
2022/04/24 08:15:34;;;;;;;5.25;3.10;;;13.10;99.90;;;;;;5033801;28;20034;-80
2022/04/24 08:18:01;;;;;;;6.25;3.55;;;13.20;99.90;;;;;;5035111;28;20034;-78
2022/04/24 08:20:27;;;;;;;3.80;2.75;;;13.30;99.90;;;;;;5034681;28;20518;-80
2022/04/24 08:22:54;;;;;;;5.18;2.70;;;13.40;99.90;;;;;;5034836;28;20037;-79
2022/04/24 08:25:22;;;;;;;6.25;2.70;;;13.50;99.90;;;;;;5034163;28;20044;-75
2022/04/24 08:27:49;;;;;;;5.35;2.67;;;13.60;99.90;;;;;;5034620;28;20077;-79
2022/04/24 08:30:16;;;;;;;5.53;2.95;;;13.60;99.90;;;;;;5035356;28;20103;-79
2022/04/24 08:32:42;;;;;;;5.85;2.80;;;13.80;99.90;;;;;;5035829;28;20045;-79
2022/04/24 08:35:10;;;;;;;4.20;2.53;;;13.90;99.90;;;;;;5017339;28;20072;-81
2022/04/24 08:37:36;;;;;;;6.65;3.40;;;13.90;99.90;;;;;;5034288;28;20044;-78
2022/04/24 08:40:05;;;;;;;5.93;3.55;;;14.00;99.90;;;;;;5034190;28;20041;-80
2022/04/24 08:42:32;;;;;;;4.85;3.20;;;14.10;99.90;;;;;;5034985;28;20041;-80
2022/04/24 08:44:58;;;;;;;5.68;3.22;;;14.20;99.90;;;;;;5033280;28;20398;-80
2022/04/24 08:47:25;;;;;;;7.47;3.55;;;14.30;99.90;;;;;;5032104;28;20048;-80
2022/04/24 08:49:55;;;;;;;6.97;3.35;;;14.30;99.90;;;;;;5031062;28;20038;-80
2022/04/24 08:52:22;;;;;;;7.95;3.35;;;14.30;99.90;;;;;;5032056;28;20052;-80
2022/04/24 08:54:49;;;;;;;6.10;2.95;;;14.40;99.90;;;;;;5033220;28;20048;-79
2022/04/24 08:57:15;;;;;;;6.43;3.28;;;14.50;99.90;;;;;;5032629;28;20033;-79
2022/04/24 08:59:41;;;;;;;5.75;3.42;;;14.50;99.90;;;;;;5032469;28;20044;-79
2022/04/24 09:02:09;;;;;;;4.20;2.92;;;14.50;99.90;;;;;;5032694;28;20038;-79
2022/04/24 09:04:36;;;;;;;4.13;2.95;;;14.50;99.90;;;;;;5032742;28;20045;-80
2022/04/24 09:07:07;;;;;;;6.93;3.30;;;14.50;99.90;;;;;;5032156;28;20041;-79
2022/04/24 09:09:42;;;;;;;6.03;2.85;;;14.60;99.90;;;;;;5033438;28;20048;-77
2022/04/24 09:12:10;;;;;;;4.00;2.65;;;14.60;99.90;;;;;;5033583;28;20481;-80
2022/04/24 09:14:36;;;;;;;5.03;2.75;;;14.60;99.90;;;;;;5032860;28;20041;-79
2022/04/24 09:17:20;;;;;;;4.82;3.08;;;14.60;99.90;;;;;;5033918;28;20483;-81
2022/04/24 09:19:46;;;;;;;4.72;3.35;;;14.70;99.90;;;;;;5033040;28;20033;-79
2022/04/24 09:22:12;;;;;;;6.28;3.25;;;14.80;99.90;;;;;;5033087;28;20072;-80
2022/04/24 09:24:47;;;;;;;5.47;2.75;;;14.80;99.90;;;;;;5016250;28;20033;-82
2022/04/24 09:27:22;;;;;;;5.20;3.25;;;14.90;99.90;;;;;;5032569;28;20045;-82
2022/04/24 09:29:54;;;;;;;10.18;3.40;;;15.00;99.90;;;;;;5032597;28;20089;-80
2022/04/24 09:32:21;;;;;;;5.28;3.10;;;15.10;99.90;;;;;;5014935;28;20033;-80
2022/04/24 09:34:47;;;;;;;7.68;3.50;;;15.10;99.90;;;;;;5032029;28;20034;-78
2022/04/24 09:37:13;;;;;;;5.30;3.17;;;15.00;99.90;;;;;;5032477;28;20345;-82
2022/04/24 09:39:38;;;;;;;6.72;3.20;;;15.20;99.90;;;;;;5031470;28;20041;-83
2022/04/24 09:42:08;;;;;;;5.18;3.28;;;15.20;99.90;;;;;;5031499;28;20047;-82
2022/04/24 09:44:39;;;;;;;6.53;3.45;;;15.20;99.90;;;;;;5031794;28;20103;-80
2022/04/24 09:47:06;;;;;;;6.45;3.65;;;15.20;99.90;;;;;;5031812;28;20045;-84
2022/04/24 09:49:37;;;;;;;5.60;3.45;;;15.30;99.90;;;;;;5015312;28;20073;-81
2022/04/24 09:52:07;;;;;;;5.53;3.08;;;15.40;99.90;;;;;;5031218;28;20041;-79
2022/04/24 09:54:33;;;;;;;5.22;3.03;;;15.40;99.90;;;;;;5031671;28;20037;-80
2022/04/24 09:57:01;;;;;;;6.07;3.15;;;15.40;99.90;;;;;;5031675;28;20092;-81
2022/04/24 09:59:27;;;;;;;4.85;2.72;;;15.50;99.90;;;;;;5030878;28;20044;-82
2022/04/24 10:01:54;;;;;;;5.65;3.03;;;15.50;99.90;;;;;;5048856;28;20037;-79
2022/04/24 10:04:20;;;;;;;6.20;2.90;;;15.60;99.90;;;;;;5015608;28;20073;-81
2022/04/24 10:06:47;;;;;;;7.90;2.70;;;15.60;99.90;;;;;;5032386;28;20041;-80
2022/04/24 10:09:13;;;;;;;7.10;2.65;;;15.60;99.90;;;;;;5031957;28;20518;-77
2022/04/24 10:11:39;;;;;;;5.10;2.70;;;15.60;99.90;;;;;;5030545;28;20603;-80
2022/04/24 10:14:08;;;;;;;5.82;2.90;;;15.70;99.90;;;;;;5028811;28;20105;-79
2022/04/24 10:16:58;;;;;;;7.50;2.85;;;15.70;99.90;;;;;;5032523;28;20034;-80
2022/04/24 10:19:38;;;;;;;5.93;2.88;;;15.70;99.90;;;;;;5032779;28;20041;-79
2022/04/24 10:22:15;;;;;;;5.47;2.60;;;15.80;99.90;;;;;;5032009;28;20442;-78
2022/04/24 10:24:46;;;;;;;6.43;3.10;;;15.90;99.90;;;;;;5033173;28;20068;-80
2022/04/24 10:27:12;;;;;;;4.47;2.80;;;16.10;99.90;;;;;;5033143;28;20048;-80
2022/04/24 10:30:00;;;;;;;4.03;2.58;;;16.20;99.90;;;;;;5031992;28;20578;-75
2022/04/24 10:32:33;;;;;;;4.25;2.60;;;16.30;99.10;;;;;;5032555;28;20076;-77
2022/04/24 10:34:59;;;;;;;4.22;2.40;;;16.30;99.70;;;;;;5031785;28;20143;-78
2022/04/24 10:37:33;;;;;;;4.07;2.70;;;16.30;99.00;;;;;;5031844;28;20042;-78
2022/04/24 10:40:00;;;;;;;4.45;2.47;;;16.40;98.90;;;;;;5031484;28;20033;-77
2022/04/24 10:42:34;;;;;;;5.90;2.83;;;16.50;99.00;;;;;;5031802;28;20080;-79
2022/04/24 10:45:14;;;;;;;3.85;2.58;;;16.70;99.40;;;;;;5031232;28;20041;-78
2022/04/24 10:47:50;;;;;;;4.97;2.78;;;16.80;98.70;;;;;;5031646;28;20037;-78
2022/04/24 10:50:20;;;;;;;6.03;3.10;;;16.70;97.90;;;;;;5032500;28;20041;-79
2022/04/24 10:52:48;;;;;;;5.38;2.95;;;16.80;98.20;;;;;;5032425;28;20037;-78
2022/04/24 10:55:22;;;;;;;4.15;2.75;;;16.90;98.10;;;;;;5030481;28;20037;-79
2022/04/24 10:57:54;;;;;;;4.32;2.50;;;16.90;97.50;;;;;;5030650;28;20037;-80
2022/04/24 11:00:22;;;;;;;5.63;2.65;;;17.00;97.40;;;;;;5029729;28;20040;-77
2022/04/24 11:02:49;;;;;;;5.93;2.75;;;17.10;97.40;;;;;;5027227;28;20068;-78
2022/04/24 11:05:20;;;;;;;4.80;2.35;;;17.10;97.30;;;;;;5027823;28;20052;-76
2022/04/24 11:07:46;;;;;;;4.38;2.45;;;17.30;96.40;;;;;;5048957;28;20069;-80
2022/04/24 11:10:13;;;;;;;5.63;2.28;;;17.20;96.40;;;;;;5033154;28;20084;-79
2022/04/24 11:12:39;;;;;;;4.57;2.30;;;17.20;96.30;;;;;;5032676;28;20048;-80
2022/04/24 11:15:08;;;;;;;4.68;2.28;;;17.10;96.40;;;;;;5029534;28;20056;-80
2022/04/24 11:17:34;;;;;;;5.80;2.33;;;17.30;96.30;;;;;;5047983;28;20104;-77
2022/04/24 11:20:03;;;;;;;6.20;2.55;;;17.50;95.90;;;;;;5029445;28;20034;-81
2022/04/24 11:22:31;;;;;;;6.60;2.90;;;17.60;95.60;;;;;;5029023;28;20045;-79
2022/04/24 11:25:00;;;;;;;6.13;2.70;;;17.30;95.40;;;;;;5026063;28;20052;-78
2022/04/24 11:27:26;;;;;;;6.82;3.13;;;17.30;96.00;;;;;;5031850;28;20038;-79
2022/04/24 11:29:52;;;;;;;8.27;3.22;;;17.30;96.30;;;;;;5031700;28;20041;-80
2022/04/24 11:32:18;;;;;;;7.18;3.30;;;17.00;95.70;;;;;;5026324;28;20038;-80
2022/04/24 11:34:44;;;;;;;9.38;3.38;;;17.20;96.30;;;;;;5046172;28;20038;-78
2022/04/24 11:37:10;;;;;;;9.38;3.22;;;17.30;96.20;;;;;;5023807;28;20044;-81
2022/04/24 11:39:38;;;;;;;6.35;3.53;;;17.30;96.20;;;;;;5033512;28;20041;-80
2022/04/24 11:42:04;;;;;;;6.80;3.28;;;17.40;96.20;;;;;;5035087;28;20042;-81
2022/04/24 11:50:15;;;;;;;4.40;3.10;;;17.30;95.60;;;;;;5029811;28;19917;-81
2022/04/24 11:52:46;;;;;;;9.27;3.67;;;17.60;96.40;;;;;;5015356;28;20099;-78
2022/04/24 11:55:19;;;;;;;5.07;3.50;;;17.80;96.20;;;;;;5024648;28;20568;-81
2022/04/24 11:57:56;;;;;;;7.25;3.72;;;17.90;95.80;;;;;;5032066;28;20030;-79
2022/04/24 12:00:37;;;;;;;6.68;3.85;;;18.30;96.40;;;;;;5015722;28;20068;-82
2022/04/24 12:03:05;;;;;;;6.60;3.63;;;18.10;96.00;;;;;;5014972;28;20068;-81
2022/04/24 12:05:31;;;;;;;5.45;3.50;;;18.20;96.20;;;;;;5031269;28;20073;-81
2022/04/24 12:07:57;;;;;;;7.93;3.92;;;18.00;95.90;;;;;;5031272;28;20083;-77
2022/04/24 12:10:24;;;;;;;5.40;3.75;;;17.90;96.10;;;;;;5016988;28;20553;-81
2022/04/24 12:12:51;;;;;;;10.10;4.18;;;17.80;96.00;;;;;;5018764;28;20072;-81
2022/04/24 12:15:19;;;;;;;10.48;4.05;;;17.80;96.20;;;;;;5033966;28;20049;-81
2022/04/24 12:17:55;;;;;;;6.72;3.97;;;17.90;95.70;;;;;;5032992;28;20518;-80
2022/04/24 12:20:40;;;;;;;8.43;4.20;;;18.10;96.20;;;;;;5031998;28;20563;-80
2022/04/24 12:23:09;;;;;;;8.15;3.78;;;18.30;96.40;;;;;;5025957;28;20038;-80
2022/04/24 12:25:46;;;;;;;7.30;3.80;;;18.50;95.80;;;;;;5020511;28;20065;-83
2022/04/24 12:28:12;;;;;;;5.95;3.97;;;18.50;95.80;;;;;;5016761;28;20038;-82
2022/04/24 12:30:37;;;;;;;9.57;4.43;;;18.60;95.70;;;;;;5028924;28;20111;-82
2022/04/24 12:33:07;;;;;;;5.25;3.55;;;18.70;95.50;;;;;;5026234;28;20033;-81
2022/04/24 12:35:34;;;;;;;8.98;3.90;;;18.90;95.60;;;;;;5027535;28;20136;-79
2022/04/24 12:38:11;;;;;;;7.13;3.63;;;19.00;95.50;;;;;;5011280;28;20038;-81
2022/04/24 12:40:37;;;;;;;6.10;3.33;;;18.90;94.70;;;;;;5012450;28;20034;-81
2022/04/24 12:43:03;;;;;;;5.32;3.20;;;18.50;94.40;;;;;;5015389;28;20514;-82
2022/04/24 12:45:28;;;;;;;4.63;3.45;;;18.50;94.90;;;;;;5015900;28;20045;-82
2022/04/24 12:47:54;;;;;;;8.73;3.63;;;18.40;94.60;;;;;;5016702;28;20507;-81
2022/04/24 12:50:19;;;;;;;7.35;3.30;;;18.40;94.70;;;;;;5015964;28;20041;-80
2022/04/24 12:52:45;;;;;;;5.72;3.67;;;18.30;95.10;;;;;;5017826;28;20412;-82
2022/04/24 12:55:11;;;;;;;6.55;3.50;;;18.60;94.90;;;;;;5033529;28;20037;-82